createdAt,value
2022-12-15T00:01:06.842Z,89.45
2022-12-15T00:04:27.717Z,89.51
2022-12-15T00:07:55.097Z,89.80
2022-12-15T00:11:16.006Z,88.73
2022-12-15T00:14:37.116Z,89.47
2022-12-15T00:18:04.190Z,88.73
2022-12-15T00:21:33.696Z,88.87
2022-12-15T00:24:57.142Z,89.15
2022-12-15T00:28:26.869Z,89.19
2022-12-15T00:31:49.108Z,88.39
2022-12-15T00:35:25.148Z,88.87
2022-12-15T00:38:44.424Z,88.49
2022-12-15T00:41:46.398Z,88.68
2022-12-15T00:44:55.431Z,89.46
2022-12-15T00:48:06.865Z,88.54
2022-12-15T00:51:18.564Z,88.76
2022-12-15T00:54:39.057Z,89.09
2022-12-15T00:58:03.736Z,88.09
2022-12-15T01:01:40.127Z,88.06
2022-12-15T01:05:13.224Z,88.57
2022-12-15T01:08:33.649Z,88.88
2022-12-15T01:11:54.486Z,88.51
2022-12-15T01:15:14.986Z,87.83
2022-12-15T01:18:36.057Z,88.50
2022-12-15T01:21:38.903Z,90.66
2022-12-15T01:24:42.697Z,90.26
2022-12-15T01:27:46.179Z,90.78
2022-12-15T01:30:54.770Z,92.04
2022-12-15T01:34:12.506Z,91.26
2022-12-15T01:37:14.766Z,92.01
2022-12-15T01:40:40.607Z,91.85
2022-12-15T01:43:49.916Z,91.98
2022-12-15T01:47:01.243Z,92.43
2022-12-15T01:50:03.755Z,92.40
2022-12-15T01:53:05.617Z,92.25
2022-12-15T01:56:08.457Z,91.86
2022-12-15T01:59:22.262Z,92.14
2022-12-15T02:02:33.391Z,91.46
2022-12-15T02:05:45.268Z,91.85
2022-12-15T02:08:50.344Z,91.13
2022-12-15T02:12:04.149Z,90.87
2022-12-15T02:15:35.737Z,91.20
2022-12-15T02:19:10.171Z,90.65
2022-12-15T02:22:28.390Z,90.44
2022-12-15T02:25:43.887Z,90.70
2022-12-15T02:29:26.547Z,90.75
2022-12-15T02:32:56.439Z,90.13
2022-12-15T02:36:32.172Z,89.64
2022-12-15T02:39:43.768Z,90.21
2022-12-15T02:42:59.934Z,90.56
2022-12-15T02:46:26.847Z,90.27
2022-12-15T02:50:10.040Z,89.94
2022-12-15T02:57:24.990Z,90.86
2022-12-15T03:00:32.116Z,90.82
2022-12-15T03:03:38.780Z,91.29
2022-12-15T03:06:48.345Z,90.75
2022-12-15T03:10:01.710Z,90.66
2022-12-15T03:13:17.107Z,92.74
2022-12-15T03:16:32.366Z,92.60
2022-12-15T03:19:46.691Z,93.58
2022-12-15T03:22:58.378Z,93.58
2022-12-15T03:26:06.364Z,94.63
2022-12-15T03:29:09.201Z,94.43
2022-12-15T03:32:12.264Z,94.30
2022-12-15T03:35:14.939Z,93.41
2022-12-15T03:38:25.025Z,92.16
2022-12-15T03:41:27.614Z,92.71
2022-12-15T03:44:30.271Z,92.59
2022-12-15T03:47:35.777Z,92.77
2022-12-15T03:50:38.522Z,92.92
2022-12-15T03:53:43.932Z,92.52
2022-12-15T03:56:47.516Z,92.68
2022-12-15T03:59:50.197Z,92.55
2022-12-15T04:02:55.773Z,92.58
2022-12-15T04:05:58.496Z,91.73
2022-12-15T04:09:01.135Z,92.13
2022-12-15T04:12:06.217Z,92.82
2022-12-15T04:15:11.888Z,92.71
2022-12-15T04:18:20.367Z,92.35
2022-12-15T04:21:22.905Z,93.52
2022-12-15T04:24:44.285Z,93.75
2022-12-15T04:28:05.244Z,93.15
2022-12-15T04:31:48.125Z,92.87
2022-12-15T04:35:08.965Z,94.51
2022-12-15T04:38:29.769Z,93.55
2022-12-15T04:41:51.594Z,93.88
2022-12-15T04:45:18.735Z,93.50
2022-12-15T04:48:44.789Z,92.68
2022-12-15T04:52:05.609Z,93.34
2022-12-15T04:55:31.156Z,93.72
2022-12-15T04:58:51.929Z,93.20
2022-12-15T05:02:18.926Z,93.08
2022-12-15T05:05:45.651Z,93.10
2022-12-15T05:09:06.462Z,92.35
2022-12-15T05:12:27.416Z,93.17
2022-12-15T05:15:52.091Z,93.44
2022-12-15T05:19:13.095Z,92.74
2022-12-15T05:22:36.842Z,93.74
2022-12-15T05:26:02.366Z,94.32
2022-12-15T05:29:23.987Z,95.76
2022-12-15T05:32:26.457Z,95.72
2022-12-15T05:35:29.108Z,95.02
2022-12-15T05:38:37.529Z,95.25
2022-12-15T05:41:43.040Z,94.60
2022-12-15T05:44:45.745Z,94.12
2022-12-15T05:47:55.032Z,95.02
2022-12-15T05:50:57.747Z,96.48
2022-12-15T05:54:00.261Z,95.94
2022-12-15T05:57:02.834Z,96.03
2022-12-15T06:00:06.041Z,96.74
2022-12-15T06:03:14.044Z,97.16
2022-12-15T06:06:16.564Z,97.92
2022-12-15T06:09:19.023Z,98.04
2022-12-15T06:12:21.291Z,99.33
2022-12-15T06:15:23.872Z,98.98
2022-12-15T06:18:28.984Z,98.51
2022-12-15T06:21:35.638Z,97.93
2022-12-15T06:24:37.970Z,98.59
2022-12-15T06:27:40.412Z,100.00
2022-12-15T06:30:43.038Z,99.80
2022-12-15T06:33:47.949Z,99.71
2022-12-15T06:36:50.571Z,100.00
2022-12-15T06:39:53.154Z,100.00
2022-12-15T06:42:55.561Z,100.00
2022-12-15T06:45:58.369Z,100.00
2022-12-15T06:49:02.246Z,100.00
2022-12-15T06:52:04.712Z,100.00
2022-12-15T06:55:06.844Z,100.00
2022-12-15T06:58:08.770Z,100.00
2022-12-15T07:01:11.444Z,100.00
2022-12-15T07:04:13.540Z,99.99
2022-12-15T07:07:15.580Z,100.00
2022-12-15T07:10:18.304Z,100.00
2022-12-15T07:13:23.283Z,99.93
2022-12-15T07:16:25.574Z,98.54
2022-12-15T07:19:27.442Z,98.92
2022-12-15T07:22:29.436Z,99.00
2022-12-15T07:25:31.547Z,98.81
2022-12-15T07:28:34.807Z,99.44
2022-12-15T07:31:40.732Z,98.46
2022-12-15T07:34:43.353Z,98.39
2022-12-15T07:37:46.846Z,97.51
2022-12-15T07:40:50.953Z,96.61
2022-12-15T07:43:52.986Z,95.09
2022-12-15T07:46:55.829Z,94.91
2022-12-15T07:49:58.070Z,94.18
2022-12-15T07:52:59.921Z,94.31
2022-12-15T07:56:09.115Z,94.42
2022-12-15T07:59:12.941Z,92.77
2022-12-15T08:02:15.078Z,91.33
2022-12-15T08:05:17.061Z,91.39
2022-12-15T08:08:18.940Z,92.06
2022-12-15T08:11:22.629Z,92.28
2022-12-15T08:14:24.999Z,89.96
2022-12-15T08:17:26.959Z,90.90
2022-12-15T08:20:30.539Z,91.57
2022-12-15T08:23:33.958Z,90.98
2022-12-15T08:26:38.018Z,88.76
2022-12-15T08:29:55.075Z,88.92
2022-12-15T08:32:56.840Z,87.43
2022-12-15T08:36:03.564Z,85.65
2022-12-15T08:39:06.559Z,84.88
2022-12-15T08:42:08.789Z,84.34
2022-12-15T08:45:12.776Z,83.61
2022-12-15T08:48:14.733Z,83.49
2022-12-15T08:51:17.128Z,82.76
2022-12-15T08:54:19.982Z,82.68
2022-12-15T08:57:21.944Z,83.11
2022-12-15T09:00:24.201Z,83.28
2022-12-15T09:03:27.672Z,83.74
2022-12-15T09:06:31.981Z,82.58
2022-12-15T09:09:33.736Z,81.38
2022-12-15T09:12:35.494Z,81.10
2022-12-15T09:16:07.551Z,80.17
2022-12-15T09:18:59.992Z,80.52
2022-12-15T09:22:01.808Z,79.62
2022-12-15T09:25:06.259Z,79.81
2022-12-15T09:28:08.055Z,78.07
2022-12-15T09:31:22.355Z,77.46
2022-12-15T09:34:24.420Z,78.23
2022-12-15T09:37:26.220Z,78.21
2022-12-15T09:40:28.069Z,78.73
2022-12-15T09:43:34.711Z,78.65
2022-12-15T09:46:50.154Z,77.22
2022-12-15T09:49:59.641Z,78.68
2022-12-15T09:53:02.536Z,78.82
2022-12-15T09:56:27.796Z,77.55
2022-12-15T09:59:34.966Z,76.51
2022-12-15T10:02:36.674Z,74.06
2022-12-15T10:06:15.052Z,73.76
2022-12-15T10:09:23.347Z,73.79
2022-12-15T10:12:30.118Z,73.93
2022-12-15T10:15:42.101Z,74.26
2022-12-15T10:19:02.691Z,74.62
2022-12-15T10:22:04.575Z,75.03
2022-12-15T10:25:31.154Z,74.51
2022-12-15T10:28:54.458Z,74.82
2022-12-15T10:32:01.554Z,75.01
2022-12-15T10:35:14.661Z,74.08
2022-12-15T10:38:35.009Z,73.50
2022-12-15T10:41:37.008Z,73.03
2022-12-15T10:44:41.596Z,72.80
2022-12-15T10:47:59.687Z,73.38
2022-12-15T10:51:15.334Z,71.88
2022-12-15T10:54:19.197Z,72.24
2022-12-15T10:57:30.334Z,72.87
2022-12-15T11:00:33.572Z,74.56
2022-12-15T11:03:39.981Z,73.47
2022-12-15T11:06:42.833Z,74.09
2022-12-15T11:09:45.303Z,73.35
2022-12-15T11:13:08.637Z,73.14
2022-12-15T11:16:15.849Z,74.02
2022-12-15T11:19:38.112Z,74.00
2022-12-15T11:22:44.502Z,73.97
2022-12-15T11:26:21.003Z,74.33
2022-12-15T11:30:31.118Z,74.76
2022-12-15T11:33:33.265Z,73.74
2022-12-15T11:36:58.071Z,74.35
2022-12-15T11:40:37.463Z,73.98
2022-12-15T11:43:55.315Z,74.47
2022-12-15T11:46:57.189Z,72.87
2022-12-15T11:50:25.413Z,73.83
2022-12-15T11:53:56.144Z,73.88
2022-12-15T11:57:35.693Z,72.90
2022-12-15T12:00:43.919Z,71.71
2022-12-15T12:04:03.071Z,72.32
2022-12-15T12:07:26.608Z,72.10
2022-12-15T12:10:50.238Z,71.19
2022-12-15T12:14:14.567Z,70.79
2022-12-15T12:17:22.101Z,72.00
2022-12-15T12:20:52.981Z,72.28
2022-12-15T12:23:57.209Z,71.54
2022-12-15T12:27:06.351Z,70.86
2022-12-15T12:30:17.113Z,70.27
2022-12-15T12:33:31.093Z,70.17
2022-12-15T12:36:32.841Z,68.93
2022-12-15T12:39:35.060Z,67.97
2022-12-15T12:42:52.795Z,68.11
2022-12-15T12:45:55.707Z,68.12
2022-12-15T12:48:57.677Z,70.10
2022-12-15T12:52:02.039Z,72.29
2022-12-15T12:55:33.048Z,72.37
2022-12-15T12:58:35.267Z,73.13
2022-12-15T13:01:38.727Z,73.19
2022-12-15T13:04:43.221Z,73.79
2022-12-15T13:07:57.557Z,74.39
2022-12-15T13:11:39.069Z,74.80
2022-12-15T13:14:41.061Z,76.00
2022-12-15T13:17:50.633Z,75.69
2022-12-15T13:20:56.819Z,77.17
2022-12-15T13:23:59.620Z,76.16
2022-12-15T13:30:10.835Z,77.75
2022-12-15T13:33:17.395Z,78.76
2022-12-15T13:36:40.608Z,79.11
2022-12-15T13:39:55.918Z,79.27
2022-12-15T13:43:19.192Z,80.03
2022-12-15T13:46:26.167Z,80.13
2022-12-15T13:49:37.681Z,80.72
2022-12-15T13:53:18.548Z,81.15
2022-12-15T13:56:55.327Z,81.23
2022-12-15T13:59:58.811Z,80.86
2022-12-15T14:03:07.099Z,81.30
2022-12-15T14:06:13.558Z,81.64
2022-12-15T14:09:19.720Z,81.27
2022-12-15T14:12:21.859Z,81.78
2022-12-15T14:15:32.390Z,82.00
2022-12-15T14:18:36.617Z,81.62
2022-12-15T14:21:38.669Z,82.29
2022-12-15T14:24:44.720Z,83.05
2022-12-15T14:27:50.642Z,82.99
2022-12-15T14:30:53.528Z,84.52
2022-12-15T14:34:14.519Z,85.64
2022-12-15T14:37:19.630Z,87.91
2022-12-15T14:40:28.227Z,89.42
2022-12-15T14:43:37.588Z,89.95
2022-12-15T14:46:39.908Z,90.85
2022-12-15T14:49:45.560Z,90.84
2022-12-15T14:52:47.663Z,91.11
2022-12-15T14:55:50.212Z,90.44
2022-12-15T14:59:05.047Z,89.84
2022-12-15T15:02:23.449Z,89.67
2022-12-15T15:05:28.133Z,88.93
2022-12-15T15:08:37.010Z,91.39
2022-12-15T15:11:42.084Z,92.33
2022-12-15T15:14:49.554Z,92.41
2022-12-15T15:17:55.238Z,92.20
2022-12-15T15:21:01.661Z,92.17
2022-12-15T15:24:09.904Z,92.65
2022-12-15T15:27:38.677Z,93.35
2022-12-15T15:30:56.234Z,93.01
2022-12-15T15:33:58.988Z,92.01
2022-12-15T15:37:03.323Z,91.75
2022-12-15T15:40:10.888Z,92.05
2022-12-15T15:43:13.570Z,92.91
2022-12-15T15:46:20.453Z,93.00
2022-12-15T15:49:24.746Z,93.21
2022-12-15T15:52:28.906Z,92.58
2022-12-15T15:55:37.796Z,93.94
2022-12-15T15:58:43.021Z,94.37
2022-12-15T16:01:46.783Z,94.97
2022-12-15T16:04:50.101Z,95.80
2022-12-15T16:07:52.143Z,96.52
2022-12-15T16:10:54.726Z,97.16
2022-12-15T16:13:57.245Z,97.43
2022-12-15T16:17:00.365Z,97.17
2022-12-15T16:20:02.816Z,96.45
2022-12-15T16:23:16.978Z,94.36
2022-12-15T16:26:30.499Z,93.65
2022-12-15T16:29:32.738Z,92.54
2022-12-15T16:32:34.866Z,92.36
2022-12-15T16:35:37.443Z,92.90
2022-12-15T16:38:43.622Z,91.86
2022-12-15T16:41:45.741Z,91.40
2022-12-15T16:44:48.255Z,91.17
2022-12-15T16:47:50.978Z,90.74
2022-12-15T16:50:56.248Z,90.44
2022-12-15T16:53:58.702Z,89.52
2022-12-15T16:57:03.096Z,90.40
2022-12-15T17:00:22.630Z,91.56
2022-12-15T17:03:28.415Z,91.59
2022-12-15T17:06:31.093Z,92.72
2022-12-15T17:09:37.469Z,93.00
2022-12-15T17:12:40.633Z,94.29
2022-12-15T17:15:43.077Z,95.12
2022-12-15T17:18:45.450Z,95.68
2022-12-15T17:21:52.852Z,96.69
2022-12-15T17:24:55.581Z,96.28
2022-12-15T17:27:58.297Z,94.96
2022-12-15T17:31:00.868Z,93.53
2022-12-15T17:34:25.641Z,92.91
2022-12-15T17:37:34.881Z,93.32
2022-12-15T17:40:37.884Z,95.08
2022-12-15T17:43:41.625Z,93.60
2022-12-15T17:46:44.069Z,92.46
2022-12-15T17:49:47.788Z,92.52
2022-12-15T17:52:50.435Z,92.30
2022-12-15T17:55:54.256Z,91.97
2022-12-15T17:58:56.505Z,92.45
2022-12-15T18:01:58.652Z,92.00
2022-12-15T18:05:00.684Z,91.89
2022-12-15T18:08:07.630Z,91.73
2022-12-15T18:11:16.062Z,90.91
2022-12-15T18:14:20.064Z,89.84
2022-12-15T18:17:22.953Z,89.53
2022-12-15T18:20:26.078Z,90.24
2022-12-15T18:23:33.152Z,89.92
2022-12-15T18:26:38.345Z,90.05
2022-12-15T18:29:40.293Z,90.60
2022-12-15T18:32:42.704Z,90.48
2022-12-15T18:35:47.326Z,90.94
2022-12-15T18:38:49.803Z,90.20
2022-12-15T18:41:55.162Z,90.92
2022-12-15T18:44:58.878Z,91.12
2022-12-15T18:48:00.987Z,91.13
2022-12-15T18:51:13.595Z,91.02
2022-12-15T18:54:24.292Z,92.03
2022-12-15T18:57:40.023Z,92.46
2022-12-15T19:00:42.635Z,93.30
2022-12-15T19:03:44.699Z,93.29
2022-12-15T19:06:47.403Z,93.91
2022-12-15T19:09:50.518Z,94.95
2022-12-15T19:12:58.239Z,94.85
2022-12-15T19:16:02.630Z,96.15
2022-12-15T19:19:23.356Z,97.09
2022-12-15T19:22:29.871Z,97.33
2022-12-15T19:25:32.869Z,97.81
2022-12-15T19:28:35.159Z,97.62
2022-12-15T19:31:37.667Z,96.23
2022-12-15T19:34:40.382Z,95.30
2022-12-15T19:37:44.869Z,95.31
2022-12-15T19:40:48.240Z,94.61
2022-12-15T19:43:50.233Z,94.15
2022-12-15T19:46:52.957Z,93.64
2022-12-15T19:49:55.161Z,93.96
2022-12-15T19:53:02.356Z,94.09
2022-12-15T19:56:04.833Z,93.34
2022-12-15T19:59:13.606Z,91.75
2022-12-15T20:02:17.958Z,94.22
2022-12-15T20:05:25.376Z,95.12
2022-12-15T20:08:28.501Z,94.43
2022-12-15T20:11:32.295Z,95.95
2022-12-15T20:14:34.575Z,96.48
2022-12-15T20:17:36.612Z,96.10
2022-12-15T20:20:39.163Z,94.54
2022-12-15T20:23:55.321Z,92.76
2022-12-15T20:26:57.794Z,93.13
2022-12-15T20:30:00.078Z,95.30
2022-12-15T20:33:04.067Z,94.30
2022-12-15T20:36:16.205Z,94.00
2022-12-15T20:39:26.622Z,93.19
2022-12-15T20:42:28.693Z,93.54
2022-12-15T20:45:30.833Z,93.51
2022-12-15T20:48:34.296Z,92.42
2022-12-15T20:51:36.194Z,91.43
2022-12-15T20:54:38.171Z,91.80
2022-12-15T20:57:40.321Z,93.70
2022-12-15T21:00:43.043Z,94.60
2022-12-15T21:03:46.037Z,93.46
2022-12-15T21:06:52.946Z,93.82
2022-12-15T21:09:56.844Z,94.91
2022-12-15T21:12:58.897Z,95.80
2022-12-15T21:16:01.315Z,95.68
2022-12-15T21:19:19.842Z,96.04
2022-12-15T21:22:25.092Z,97.80
2022-12-15T21:25:27.754Z,98.12
2022-12-15T21:28:30.231Z,98.51
2022-12-15T21:31:32.238Z,98.92
2022-12-15T21:34:34.841Z,98.18
2022-12-15T21:37:36.893Z,98.00
2022-12-15T21:40:38.906Z,97.75
2022-12-15T21:43:40.773Z,97.10
2022-12-15T21:46:42.842Z,97.24
2022-12-15T21:49:44.737Z,97.32
2022-12-15T21:52:47.719Z,97.32
2022-12-15T21:55:50.095Z,98.15
2022-12-15T21:58:52.934Z,98.83
2022-12-15T22:01:57.556Z,98.69
2022-12-15T22:04:59.797Z,100.00
2022-12-15T22:08:13.719Z,100.00
2022-12-15T22:11:23.854Z,100.00
2022-12-15T22:14:28.121Z,100.00
2022-12-15T22:17:30.253Z,100.00
2022-12-15T22:20:32.371Z,100.00
2022-12-15T22:23:34.649Z,100.00
2022-12-15T22:26:37.829Z,100.00
2022-12-15T22:29:39.857Z,100.00
2022-12-15T22:32:42.395Z,100.00
2022-12-15T22:35:44.292Z,100.00
2022-12-15T22:38:47.089Z,100.00
2022-12-15T22:41:51.012Z,100.00
2022-12-15T22:44:53.873Z,100.00
2022-12-15T22:47:57.050Z,100.00
2022-12-15T22:50:59.386Z,100.00
2022-12-15T22:54:01.641Z,100.00
2022-12-15T22:57:05.596Z,100.00
2022-12-15T23:00:09.890Z,100.00
2022-12-15T23:03:12.308Z,100.00
2022-12-15T23:06:14.155Z,100.00
2022-12-15T23:09:20.938Z,100.00
2022-12-15T23:12:23.094Z,100.00
2022-12-15T23:15:45.235Z,100.00
2022-12-15T23:18:49.113Z,100.00
2022-12-15T23:21:51.754Z,100.00
2022-12-15T23:24:53.705Z,100.00
2022-12-15T23:27:55.856Z,100.00
2022-12-15T23:30:58.132Z,100.00
2022-12-15T23:34:00.108Z,100.00
2022-12-15T23:37:02.902Z,100.00
2022-12-15T23:40:05.446Z,100.00
2022-12-15T23:43:07.438Z,100.00
2022-12-15T23:46:09.469Z,100.00
2022-12-15T23:49:11.399Z,100.00
2022-12-15T23:52:13.205Z,100.00
2022-12-15T23:55:15.232Z,100.00
2022-12-15T23:58:16.943Z,100.00
